sensor_id;sensor_type;location;lat;lon;timestamp;P1;durP1;ratioP1;P2;durP2;ratioP2
70122;SDS011;57489;37.404;24.920;2023-06-10T00:02:18;7.17;;;2.73;;
70122;SDS011;57489;37.404;24.920;2023-06-10T00:07:19;6.20;;;3.23;;
70122;SDS011;57489;37.404;24.920;2023-06-10T00:12:19;5.80;;;2.70;;
70122;SDS011;57489;37.404;24.920;2023-06-10T00:17:20;6.07;;;2.80;;
70122;SDS011;57489;37.404;24.920;2023-06-10T00:22:20;6.50;;;2.70;;
70122;SDS011;57489;37.404;24.920;2023-06-10T00:27:20;5.67;;;2.83;;
70122;SDS011;57489;37.404;24.920;2023-06-10T00:32:21;6.30;;;2.80;;
70122;SDS011;57489;37.404;24.920;2023-06-10T00:37:21;6.40;;;2.90;;
70122;SDS011;57489;37.404;24.920;2023-06-10T00:42:22;6.63;;;2.47;;
70122;SDS011;57489;37.404;24.920;2023-06-10T00:47:22;7.90;;;2.80;;
70122;SDS011;57489;37.404;24.920;2023-06-10T00:52:24;5.43;;;2.73;;
70122;SDS011;57489;37.404;24.920;2023-06-10T00:57:28;6.57;;;2.65;;
70122;SDS011;57489;37.404;24.920;2023-06-10T01:02:29;5.93;;;2.87;;
70122;SDS011;57489;37.404;24.920;2023-06-10T01:12:59;5.63;;;2.80;;
70122;SDS011;57489;37.404;24.920;2023-06-10T01:18:02;6.13;;;2.67;;
70122;SDS011;57489;37.404;24.920;2023-06-10T01:23:10;5.90;;;2.67;;
70122;SDS011;57489;37.404;24.920;2023-06-10T01:33:20;5.90;;;2.58;;
70122;SDS011;57489;37.404;24.920;2023-06-10T01:38:39;5.55;;;2.92;;
70122;SDS011;57489;37.404;24.920;2023-06-10T01:43:42;5.07;;;2.40;;
70122;SDS011;57489;37.404;24.920;2023-06-10T01:48:44;6.10;;;2.93;;
70122;SDS011;57489;37.404;24.920;2023-06-10T01:53:44;6.83;;;2.50;;
70122;SDS011;57489;37.404;24.920;2023-06-10T01:58:45;5.47;;;2.70;;
70122;SDS011;57489;37.404;24.920;2023-06-10T02:03:46;5.10;;;2.40;;
70122;SDS011;57489;37.404;24.920;2023-06-10T02:08:46;5.23;;;2.57;;
70122;SDS011;57489;37.404;24.920;2023-06-10T02:13:47;5.47;;;2.50;;
70122;SDS011;57489;37.404;24.920;2023-06-10T02:18:47;5.70;;;2.37;;
70122;SDS011;57489;37.404;24.920;2023-06-10T02:23:48;5.22;;;2.60;;
70122;SDS011;57489;37.404;24.920;2023-06-10T02:28:48;4.73;;;2.17;;
70122;SDS011;57489;37.404;24.920;2023-06-10T02:33:48;5.57;;;2.73;;
70122;SDS011;57489;37.404;24.920;2023-06-10T02:38:49;6.57;;;2.40;;
70122;SDS011;57489;37.404;24.920;2023-06-10T02:43:50;6.03;;;2.47;;
70122;SDS011;57489;37.404;24.920;2023-06-10T02:48:50;5.17;;;2.30;;
70122;SDS011;57489;37.404;24.920;2023-06-10T02:53:51;5.40;;;2.57;;
70122;SDS011;57489;37.404;24.920;2023-06-10T02:58:51;4.90;;;2.47;;
70122;SDS011;57489;37.404;24.920;2023-06-10T03:03:52;5.27;;;2.20;;
70122;SDS011;57489;37.404;24.920;2023-06-10T03:08:52;3.90;;;2.03;;
70122;SDS011;57489;37.404;24.920;2023-06-10T03:13:53;5.07;;;2.40;;
70122;SDS011;57489;37.404;24.920;2023-06-10T03:18:53;4.57;;;2.25;;
70122;SDS011;57489;37.404;24.920;2023-06-10T03:23:54;5.07;;;2.30;;
70122;SDS011;57489;37.404;24.920;2023-06-10T03:28:54;4.10;;;2.10;;
70122;SDS011;57489;37.404;24.920;2023-06-10T03:33:55;7.10;;;2.60;;
70122;SDS011;57489;37.404;24.920;2023-06-10T03:38:55;5.80;;;2.90;;
70122;SDS011;57489;37.404;24.920;2023-06-10T03:43:56;6.37;;;2.37;;
70122;SDS011;57489;37.404;24.920;2023-06-10T03:48:56;7.20;;;2.80;;
70122;SDS011;57489;37.404;24.920;2023-06-10T03:53:57;7.60;;;2.57;;
70122;SDS011;57489;37.404;24.920;2023-06-10T03:58:57;6.07;;;2.60;;
70122;SDS011;57489;37.404;24.920;2023-06-10T04:03:57;5.63;;;2.37;;
70122;SDS011;57489;37.404;24.920;2023-06-10T04:08:58;4.70;;;2.27;;
70122;SDS011;57489;37.404;24.920;2023-06-10T04:13:58;5.43;;;2.20;;
70122;SDS011;57489;37.404;24.920;2023-06-10T04:18:59;5.87;;;2.43;;
70122;SDS011;57489;37.404;24.920;2023-06-10T04:24:00;4.77;;;2.33;;
70122;SDS011;57489;37.404;24.920;2023-06-10T04:29:00;4.83;;;2.13;;
70122;SDS011;57489;37.404;24.920;2023-06-10T04:34:01;5.97;;;1.95;;
70122;SDS011;57489;37.404;24.920;2023-06-10T04:39:01;6.03;;;2.40;;
70122;SDS011;57489;37.404;24.920;2023-06-10T04:44:01;4.70;;;2.10;;
70122;SDS011;57489;37.404;24.920;2023-06-10T04:49:02;5.70;;;2.53;;
70122;SDS011;57489;37.404;24.920;2023-06-10T04:54:02;5.43;;;2.20;;
70122;SDS011;57489;37.404;24.920;2023-06-10T04:59:03;4.83;;;2.27;;
70122;SDS011;57489;37.404;24.920;2023-06-10T05:04:04;6.67;;;2.50;;
70122;SDS011;57489;37.404;24.920;2023-06-10T05:09:04;5.45;;;2.78;;
70122;SDS011;57489;37.404;24.920;2023-06-10T05:14:05;3.73;;;1.80;;
70122;SDS011;57489;37.404;24.920;2023-06-10T05:19:05;5.27;;;2.53;;
70122;SDS011;57489;37.404;24.920;2023-06-10T05:24:06;4.87;;;2.50;;
70122;SDS011;57489;37.404;24.920;2023-06-10T05:29:07;4.80;;;2.07;;
70122;SDS011;57489;37.404;24.920;2023-06-10T05:34:07;4.18;;;1.83;;
70122;SDS011;57489;37.404;24.920;2023-06-10T05:39:08;8.47;;;2.30;;
70122;SDS011;57489;37.404;24.920;2023-06-10T05:44:09;5.88;;;2.38;;
70122;SDS011;57489;37.404;24.920;2023-06-10T05:49:10;5.37;;;2.50;;
70122;SDS011;57489;37.404;24.920;2023-06-10T05:54:10;4.53;;;2.00;;
70122;SDS011;57489;37.404;24.920;2023-06-10T05:59:11;7.63;;;2.10;;
70122;SDS011;57489;37.404;24.920;2023-06-10T06:04:11;8.03;;;2.30;;
70122;SDS011;57489;37.404;24.920;2023-06-10T06:09:12;4.90;;;2.13;;
70122;SDS011;57489;37.404;24.920;2023-06-10T06:14:12;4.85;;;2.13;;
70122;SDS011;57489;37.404;24.920;2023-06-10T06:19:13;5.53;;;2.47;;
70122;SDS011;57489;37.404;24.920;2023-06-10T06:24:13;6.73;;;2.53;;
70122;SDS011;57489;37.404;24.920;2023-06-10T06:29:16;9.60;;;3.17;;
70122;SDS011;57489;37.404;24.920;2023-06-10T06:34:17;8.40;;;3.53;;
70122;SDS011;57489;37.404;24.920;2023-06-10T06:39:17;8.67;;;3.07;;
70122;SDS011;57489;37.404;24.920;2023-06-10T06:44:19;9.30;;;3.10;;
70122;SDS011;57489;37.404;24.920;2023-06-10T06:49:20;6.40;;;3.20;;
70122;SDS011;57489;37.404;24.920;2023-06-10T06:54:20;7.20;;;3.07;;
70122;SDS011;57489;37.404;24.920;2023-06-10T06:59:21;7.67;;;3.27;;
70122;SDS011;57489;37.404;24.920;2023-06-10T07:04:21;6.83;;;3.03;;
70122;SDS011;57489;37.404;24.920;2023-06-10T07:09:22;8.17;;;3.80;;
70122;SDS011;57489;37.404;24.920;2023-06-10T07:14:22;5.17;;;2.93;;
70122;SDS011;57489;37.404;24.920;2023-06-10T07:19:23;5.67;;;3.33;;
70122;SDS011;57489;37.404;24.920;2023-06-10T07:24:23;6.50;;;2.77;;
70122;SDS011;57489;37.404;24.920;2023-06-10T07:29:24;6.87;;;3.13;;
70122;SDS011;57489;37.404;24.920;2023-06-10T07:34:24;5.93;;;2.90;;
70122;SDS011;57489;37.404;24.920;2023-06-10T07:39:25;7.23;;;3.20;;
70122;SDS011;57489;37.404;24.920;2023-06-10T07:44:25;8.70;;;2.93;;
70122;SDS011;57489;37.404;24.920;2023-06-10T07:49:25;8.77;;;3.40;;
70122;SDS011;57489;37.404;24.920;2023-06-10T07:54:26;7.57;;;2.90;;
70122;SDS011;57489;37.404;24.920;2023-06-10T07:59:26;6.55;;;3.33;;
70122;SDS011;57489;37.404;24.920;2023-06-10T08:04:27;7.93;;;3.23;;
70122;SDS011;57489;37.404;24.920;2023-06-10T08:09:27;9.47;;;3.40;;
70122;SDS011;57489;37.404;24.920;2023-06-10T08:14:28;5.63;;;2.93;;
70122;SDS011;57489;37.404;24.920;2023-06-10T08:19:28;10.10;;;3.20;;
70122;SDS011;57489;37.404;24.920;2023-06-10T08:24:29;11.93;;;3.00;;
70122;SDS011;57489;37.404;24.920;2023-06-10T08:29:29;5.73;;;3.13;;
70122;SDS011;57489;37.404;24.920;2023-06-10T08:34:30;5.87;;;2.93;;
70122;SDS011;57489;37.404;24.920;2023-06-10T08:39:33;5.93;;;3.00;;
70122;SDS011;57489;37.404;24.920;2023-06-10T08:44:33;8.13;;;3.30;;
70122;SDS011;57489;37.404;24.920;2023-06-10T08:49:37;9.02;;;3.17;;
70122;SDS011;57489;37.404;24.920;2023-06-10T08:54:42;10.23;;;2.90;;
70122;SDS011;57489;37.404;24.920;2023-06-10T09:00:03;7.30;;;2.63;;
70122;SDS011;57489;37.404;24.920;2023-06-10T09:05:05;7.30;;;3.10;;
70122;SDS011;57489;37.404;24.920;2023-06-10T09:10:07;6.63;;;3.17;;
70122;SDS011;57489;37.404;24.920;2023-06-10T09:15:08;7.40;;;3.07;;
70122;SDS011;57489;37.404;24.920;2023-06-10T09:20:09;6.90;;;3.35;;
70122;SDS011;57489;37.404;24.920;2023-06-10T09:25:11;8.70;;;2.85;;
70122;SDS011;57489;37.404;24.920;2023-06-10T09:30:23;13.70;;;4.47;;
70122;SDS011;57489;37.404;24.920;2023-06-10T09:35:25;29.25;;;9.57;;
70122;SDS011;57489;37.404;24.920;2023-06-10T09:40:26;147.32;;;61.70;;
70122;SDS011;57489;37.404;24.920;2023-06-10T09:45:29;130.40;;;53.20;;
70122;SDS011;57489;37.404;24.920;2023-06-10T09:50:33;109.95;;;42.17;;
70122;SDS011;57489;37.404;24.920;2023-06-10T09:55:34;58.63;;;22.73;;
70122;SDS011;57489;37.404;24.920;2023-06-10T10:00:34;33.63;;;14.70;;
70122;SDS011;57489;37.404;24.920;2023-06-10T10:05:35;20.63;;;9.33;;
70122;SDS011;57489;37.404;24.920;2023-06-10T10:10:35;16.00;;;6.30;;
70122;SDS011;57489;37.404;24.920;2023-06-10T10:15:36;11.40;;;4.63;;
70122;SDS011;57489;37.404;24.920;2023-06-10T10:20:38;8.63;;;3.40;;
70122;SDS011;57489;37.404;24.920;2023-06-10T10:25:49;7.07;;;2.95;;
70122;SDS011;57489;37.404;24.920;2023-06-10T10:30:53;5.60;;;3.17;;
70122;SDS011;57489;37.404;24.920;2023-06-10T10:35:59;5.37;;;2.70;;
70122;SDS011;57489;37.404;24.920;2023-06-10T10:41:00;6.60;;;2.95;;
70122;SDS011;57489;37.404;24.920;2023-06-10T10:46:01;8.17;;;2.40;;
70122;SDS011;57489;37.404;24.920;2023-06-10T10:51:06;6.60;;;2.92;;
70122;SDS011;57489;37.404;24.920;2023-06-10T10:56:08;4.55;;;2.17;;
70122;SDS011;57489;37.404;24.920;2023-06-10T11:01:14;5.57;;;2.50;;
70122;SDS011;57489;37.404;24.920;2023-06-10T11:06:15;7.75;;;2.42;;
70122;SDS011;57489;37.404;24.920;2023-06-10T11:11:21;6.97;;;3.10;;
70122;SDS011;57489;37.404;24.920;2023-06-10T11:16:22;5.70;;;2.42;;
70122;SDS011;57489;37.404;24.920;2023-06-10T11:21:25;7.88;;;2.80;;
70122;SDS011;57489;37.404;24.920;2023-06-10T11:31:27;6.23;;;2.83;;
70122;SDS011;57489;37.404;24.920;2023-06-10T11:36:38;6.40;;;2.63;;
70122;SDS011;57489;37.404;24.920;2023-06-10T11:41:40;6.53;;;2.67;;
70122;SDS011;57489;37.404;24.920;2023-06-10T11:46:40;5.70;;;2.90;;
70122;SDS011;57489;37.404;24.920;2023-06-10T11:51:41;6.78;;;2.63;;
70122;SDS011;57489;37.404;24.920;2023-06-10T11:56:42;5.23;;;2.17;;
70122;SDS011;57489;37.404;24.920;2023-06-10T12:01:43;7.47;;;2.60;;
70122;SDS011;57489;37.404;24.920;2023-06-10T12:11:50;5.65;;;2.78;;
70122;SDS011;57489;37.404;24.920;2023-06-10T12:16:51;5.70;;;2.67;;
70122;SDS011;57489;37.404;24.920;2023-06-10T12:21:52;7.60;;;2.63;;
70122;SDS011;57489;37.404;24.920;2023-06-10T12:26:53;5.70;;;2.13;;
70122;SDS011;57489;37.404;24.920;2023-06-10T12:31:55;6.45;;;3.17;;
70122;SDS011;57489;37.404;24.920;2023-06-10T12:36:57;4.83;;;2.47;;
70122;SDS011;57489;37.404;24.920;2023-06-10T12:41:58;7.40;;;2.75;;
70122;SDS011;57489;37.404;24.920;2023-06-10T12:46:59;5.80;;;2.47;;
70122;SDS011;57489;37.404;24.920;2023-06-10T12:51:59;8.60;;;3.03;;
70122;SDS011;57489;37.404;24.920;2023-06-10T12:57:00;6.33;;;2.57;;
70122;SDS011;57489;37.404;24.920;2023-06-10T13:02:00;4.63;;;2.40;;
70122;SDS011;57489;37.404;24.920;2023-06-10T13:07:01;6.83;;;2.97;;
70122;SDS011;57489;37.404;24.920;2023-06-10T13:12:01;5.97;;;2.67;;
70122;SDS011;57489;37.404;24.920;2023-06-10T13:17:03;5.43;;;3.00;;
70122;SDS011;57489;37.404;24.920;2023-06-10T13:22:04;7.03;;;2.73;;
70122;SDS011;57489;37.404;24.920;2023-06-10T13:27:05;4.95;;;2.40;;
70122;SDS011;57489;37.404;24.920;2023-06-10T13:32:05;6.50;;;2.67;;
70122;SDS011;57489;37.404;24.920;2023-06-10T13:37:06;5.68;;;2.55;;
70122;SDS011;57489;37.404;24.920;2023-06-10T13:42:07;8.10;;;2.50;;
70122;SDS011;57489;37.404;24.920;2023-06-10T13:47:07;6.40;;;2.60;;
70122;SDS011;57489;37.404;24.920;2023-06-10T13:52:08;8.37;;;2.57;;
70122;SDS011;57489;37.404;24.920;2023-06-10T13:57:08;7.10;;;2.50;;
70122;SDS011;57489;37.404;24.920;2023-06-10T14:02:09;7.17;;;2.50;;
70122;SDS011;57489;37.404;24.920;2023-06-10T14:07:09;5.93;;;2.97;;
70122;SDS011;57489;37.404;24.920;2023-06-10T14:12:10;7.53;;;2.53;;
70122;SDS011;57489;37.404;24.920;2023-06-10T14:17:10;5.03;;;2.07;;
70122;SDS011;57489;37.404;24.920;2023-06-10T14:22:11;5.03;;;2.33;;
70122;SDS011;57489;37.404;24.920;2023-06-10T14:27:11;9.00;;;3.30;;
70122;SDS011;57489;37.404;24.920;2023-06-10T14:32:12;15.10;;;3.43;;
70122;SDS011;57489;37.404;24.920;2023-06-10T14:37:13;9.20;;;3.07;;
70122;SDS011;57489;37.404;24.920;2023-06-10T14:42:13;7.87;;;2.60;;
70122;SDS011;57489;37.404;24.920;2023-06-10T14:47:13;6.53;;;3.10;;
70122;SDS011;57489;37.404;24.920;2023-06-10T14:52:14;6.60;;;2.53;;
70122;SDS011;57489;37.404;24.920;2023-06-10T14:57:14;6.23;;;2.40;;
70122;SDS011;57489;37.404;24.920;2023-06-10T15:02:15;5.03;;;2.23;;
70122;SDS011;57489;37.404;24.920;2023-06-10T15:07:15;6.43;;;2.43;;
70122;SDS011;57489;37.404;24.920;2023-06-10T15:12:16;5.80;;;2.57;;
70122;SDS011;57489;37.404;24.920;2023-06-10T15:17:16;5.88;;;2.70;;
70122;SDS011;57489;37.404;24.920;2023-06-10T15:22:17;5.03;;;2.43;;
70122;SDS011;57489;37.404;24.920;2023-06-10T15:27:17;6.10;;;2.77;;
70122;SDS011;57489;37.404;24.920;2023-06-10T15:32:18;5.13;;;2.80;;
70122;SDS011;57489;37.404;24.920;2023-06-10T15:37:18;5.23;;;2.40;;
70122;SDS011;57489;37.404;24.920;2023-06-10T15:42:19;5.57;;;2.53;;
70122;SDS011;57489;37.404;24.920;2023-06-10T15:47:19;5.93;;;2.40;;
70122;SDS011;57489;37.404;24.920;2023-06-10T15:52:20;11.88;;;2.95;;
70122;SDS011;57489;37.404;24.920;2023-06-10T15:57:21;6.87;;;2.10;;
70122;SDS011;57489;37.404;24.920;2023-06-10T16:02:21;6.93;;;2.30;;
70122;SDS011;57489;37.404;24.920;2023-06-10T16:07:22;7.70;;;2.73;;
70122;SDS011;57489;37.404;24.920;2023-06-10T16:12:22;9.43;;;2.47;;
70122;SDS011;57489;37.404;24.920;2023-06-10T16:17:23;7.43;;;2.53;;
70122;SDS011;57489;37.404;24.920;2023-06-10T16:22:23;7.57;;;2.78;;
70122;SDS011;57489;37.404;24.920;2023-06-10T16:27:24;7.07;;;2.50;;
70122;SDS011;57489;37.404;24.920;2023-06-10T16:32:24;7.13;;;2.73;;
70122;SDS011;57489;37.404;24.920;2023-06-10T16:37:24;6.23;;;2.83;;
70122;SDS011;57489;37.404;24.920;2023-06-10T16:42:25;8.13;;;2.80;;
70122;SDS011;57489;37.404;24.920;2023-06-10T16:47:25;5.43;;;2.30;;
70122;SDS011;57489;37.404;24.920;2023-06-10T16:52:26;7.63;;;3.00;;
70122;SDS011;57489;37.404;24.920;2023-06-10T16:57:26;17.90;;;4.40;;
70122;SDS011;57489;37.404;24.920;2023-06-10T17:02:27;10.90;;;3.55;;
70122;SDS011;57489;37.404;24.920;2023-06-10T17:07:27;20.93;;;3.37;;
70122;SDS011;57489;37.404;24.920;2023-06-10T17:12:29;7.30;;;2.83;;
70122;SDS011;57489;37.404;24.920;2023-06-10T17:17:30;8.50;;;3.07;;
70122;SDS011;57489;37.404;24.920;2023-06-10T17:22:30;10.30;;;3.20;;
70122;SDS011;57489;37.404;24.920;2023-06-10T17:27:31;6.07;;;2.70;;
70122;SDS011;57489;37.404;24.920;2023-06-10T17:32:31;8.37;;;2.57;;
70122;SDS011;57489;37.404;24.920;2023-06-10T17:37:32;7.37;;;3.13;;
70122;SDS011;57489;37.404;24.920;2023-06-10T17:42:32;7.83;;;3.10;;
70122;SDS011;57489;37.404;24.920;2023-06-10T17:47:33;8.90;;;2.70;;
70122;SDS011;57489;37.404;24.920;2023-06-10T17:52:33;5.87;;;2.77;;
70122;SDS011;57489;37.404;24.920;2023-06-10T17:57:34;6.37;;;2.70;;
70122;SDS011;57489;37.404;24.920;2023-06-10T18:02:34;7.50;;;3.17;;
70122;SDS011;57489;37.404;24.920;2023-06-10T18:07:35;6.67;;;2.97;;
70122;SDS011;57489;37.404;24.920;2023-06-10T18:12:35;7.37;;;2.77;;
70122;SDS011;57489;37.404;24.920;2023-06-10T18:17:36;6.87;;;2.53;;
70122;SDS011;57489;37.404;24.920;2023-06-10T18:22:36;5.97;;;2.63;;
70122;SDS011;57489;37.404;24.920;2023-06-10T18:27:37;8.30;;;2.80;;
70122;SDS011;57489;37.404;24.920;2023-06-10T18:32:37;7.00;;;2.60;;
70122;SDS011;57489;37.404;24.920;2023-06-10T18:37:38;5.50;;;2.53;;
70122;SDS011;57489;37.404;24.920;2023-06-10T18:42:38;12.55;;;3.20;;
70122;SDS011;57489;37.404;24.920;2023-06-10T18:47:39;6.67;;;2.60;;
70122;SDS011;57489;37.404;24.920;2023-06-10T18:52:39;6.13;;;2.67;;
70122;SDS011;57489;37.404;24.920;2023-06-10T18:57:40;7.50;;;2.70;;
70122;SDS011;57489;37.404;24.920;2023-06-10T19:02:40;5.93;;;2.33;;
70122;SDS011;57489;37.404;24.920;2023-06-10T19:07:41;9.77;;;2.97;;
70122;SDS011;57489;37.404;24.920;2023-06-10T19:12:41;6.82;;;3.10;;
70122;SDS011;57489;37.404;24.920;2023-06-10T19:17:42;8.30;;;2.73;;
70122;SDS011;57489;37.404;24.920;2023-06-10T19:22:42;8.57;;;2.60;;
70122;SDS011;57489;37.404;24.920;2023-06-10T19:27:42;5.73;;;2.70;;
70122;SDS011;57489;37.404;24.920;2023-06-10T19:32:43;8.70;;;3.00;;
70122;SDS011;57489;37.404;24.920;2023-06-10T19:37:44;6.40;;;2.63;;
70122;SDS011;57489;37.404;24.920;2023-06-10T19:42:45;7.82;;;2.50;;
70122;SDS011;57489;37.404;24.920;2023-06-10T19:47:46;6.97;;;3.20;;
70122;SDS011;57489;37.404;24.920;2023-06-10T19:52:47;6.77;;;2.90;;
70122;SDS011;57489;37.404;24.920;2023-06-10T19:57:47;8.10;;;2.80;;
70122;SDS011;57489;37.404;24.920;2023-06-10T20:02:48;13.47;;;2.77;;
70122;SDS011;57489;37.404;24.920;2023-06-10T20:07:48;9.53;;;2.90;;
70122;SDS011;57489;37.404;24.920;2023-06-10T20:12:49;7.80;;;2.73;;
70122;SDS011;57489;37.404;24.920;2023-06-10T20:17:49;6.83;;;2.30;;
70122;SDS011;57489;37.404;24.920;2023-06-10T20:22:50;7.82;;;2.42;;
70122;SDS011;57489;37.404;24.920;2023-06-10T20:27:50;6.03;;;3.00;;
70122;SDS011;57489;37.404;24.920;2023-06-10T20:32:51;6.07;;;2.93;;
70122;SDS011;57489;37.404;24.920;2023-06-10T20:37:51;9.87;;;2.93;;
70122;SDS011;57489;37.404;24.920;2023-06-10T20:42:52;7.10;;;2.50;;
70122;SDS011;57489;37.404;24.920;2023-06-10T20:47:52;5.67;;;2.93;;
70122;SDS011;57489;37.404;24.920;2023-06-10T20:52:53;6.97;;;2.42;;
70122;SDS011;57489;37.404;24.920;2023-06-10T20:57:53;5.33;;;2.87;;
70122;SDS011;57489;37.404;24.920;2023-06-10T21:02:54;6.00;;;2.83;;
70122;SDS011;57489;37.404;24.920;2023-06-10T21:07:55;6.00;;;2.53;;
70122;SDS011;57489;37.404;24.920;2023-06-10T21:12:55;4.93;;;2.43;;
70122;SDS011;57489;37.404;24.920;2023-06-10T21:17:55;7.15;;;2.70;;
70122;SDS011;57489;37.404;24.920;2023-06-10T21:22:56;7.47;;;2.90;;
70122;SDS011;57489;37.404;24.920;2023-06-10T21:27:58;5.37;;;2.87;;
70122;SDS011;57489;37.404;24.920;2023-06-10T21:32:58;5.43;;;2.77;;
70122;SDS011;57489;37.404;24.920;2023-06-10T21:37:59;6.20;;;2.67;;
70122;SDS011;57489;37.404;24.920;2023-06-10T21:42:59;6.23;;;3.57;;
70122;SDS011;57489;37.404;24.920;2023-06-10T21:48:00;8.60;;;3.30;;
70122;SDS011;57489;37.404;24.920;2023-06-10T21:53:00;6.90;;;3.80;;
70122;SDS011;57489;37.404;24.920;2023-06-10T21:58:01;6.00;;;3.10;;
70122;SDS011;57489;37.404;24.920;2023-06-10T22:03:01;7.03;;;3.50;;
70122;SDS011;57489;37.404;24.920;2023-06-10T22:08:02;6.70;;;2.80;;
70122;SDS011;57489;37.404;24.920;2023-06-10T22:13:02;8.98;;;3.55;;
70122;SDS011;57489;37.404;24.920;2023-06-10T22:18:05;6.70;;;3.10;;
70122;SDS011;57489;37.404;24.920;2023-06-10T22:23:05;6.03;;;3.05;;
70122;SDS011;57489;37.404;24.920;2023-06-10T22:28:06;8.43;;;2.80;;
70122;SDS011;57489;37.404;24.920;2023-06-10T22:33:06;6.30;;;3.13;;
70122;SDS011;57489;37.404;24.920;2023-06-10T22:38:07;8.23;;;3.40;;
70122;SDS011;57489;37.404;24.920;2023-06-10T22:43:08;8.20;;;3.70;;
70122;SDS011;57489;37.404;24.920;2023-06-10T22:48:08;7.40;;;3.40;;
70122;SDS011;57489;37.404;24.920;2023-06-10T22:53:08;6.43;;;3.38;;
70122;SDS011;57489;37.404;24.920;2023-06-10T22:58:09;8.37;;;3.50;;
70122;SDS011;57489;37.404;24.920;2023-06-10T23:03:09;7.40;;;3.10;;
70122;SDS011;57489;37.404;24.920;2023-06-10T23:08:10;5.53;;;3.13;;
70122;SDS011;57489;37.404;24.920;2023-06-10T23:13:10;5.40;;;2.93;;
70122;SDS011;57489;37.404;24.920;2023-06-10T23:18:11;5.93;;;3.33;;
70122;SDS011;57489;37.404;24.920;2023-06-10T23:23:11;5.87;;;3.10;;
70122;SDS011;57489;37.404;24.920;2023-06-10T23:28:12;6.83;;;2.80;;
70122;SDS011;57489;37.404;24.920;2023-06-10T23:33:12;7.07;;;3.27;;
70122;SDS011;57489;37.404;24.920;2023-06-10T23:38:13;6.97;;;3.23;;
70122;SDS011;57489;37.404;24.920;2023-06-10T23:43:13;6.25;;;2.90;;
70122;SDS011;57489;37.404;24.920;2023-06-10T23:48:14;5.97;;;3.40;;
70122;SDS011;57489;37.404;24.920;2023-06-10T23:53:14;7.97;;;3.50;;
70122;SDS011;57489;37.404;24.920;2023-06-10T23:58:15;5.93;;;3.10;;
